Time;durP1;ratioP1;P1;durP2;ratioP2;P2;SDS_P1;SDS_P2;PMS_P1;PMS_P2;Temp;Humidity;BMP_temperature;BMP_pressure;BME280_temperature;BME280_humidity;BME280_pressure;Samples;Min_cycle;Max_cycle;Signal;HPM_P1;HPM_P2
2023/05/14 00:02:13;;;;;;;1.30;1.20;;;11.70;99.90;;;;;;5051008;28;20234;-73
2023/05/14 00:04:42;;;;;;;1.20;1.20;;;11.70;99.90;;;;;;5049564;28;20285;-73
2023/05/14 00:07:10;;;;;;;1.40;1.33;;;11.70;99.90;;;;;;5044999;28;20253;-72
2023/05/14 00:09:37;;;;;;;1.30;1.30;;;11.70;99.90;;;;;;5049326;28;20301;-72
2023/05/14 00:12:05;;;;;;;1.42;1.42;;;11.80;99.90;;;;;;5050074;28;20268;-73
2023/05/14 00:14:32;;;;;;;1.50;1.40;;;11.70;99.90;;;;;;5046585;28;20484;-75
2023/05/14 00:16:59;;;;;;;1.30;1.30;;;11.70;99.90;;;;;;5050120;28;20207;-73
2023/05/14 00:19:27;;;;;;;1.65;1.55;;;11.70;99.90;;;;;;5052022;28;20285;-74
2023/05/14 00:21:54;;;;;;;1.30;1.30;;;11.70;99.90;;;;;;5047184;28;20191;-73
2023/05/14 00:24:22;;;;;;;1.42;1.33;;;11.70;99.90;;;;;;5048781;28;20242;-73
2023/05/14 00:26:49;;;;;;;1.50;1.50;;;11.80;99.90;;;;;;5053609;28;20203;-73
2023/05/14 00:29:16;;;;;;;1.40;1.40;;;11.80;99.90;;;;;;5050718;28;20238;-73
2023/05/14 00:31:43;;;;;;;1.30;1.20;;;11.80;99.90;;;;;;5048674;28;20249;-73
2023/05/14 00:34:10;;;;;;;1.30;1.30;;;11.90;99.90;;;;;;5053241;28;20245;-73
2023/05/14 00:36:37;;;;;;;1.30;1.30;;;11.90;99.90;;;;;;5052945;28;20525;-73
2023/05/14 00:39:04;;;;;;;1.20;1.20;;;11.90;99.90;;;;;;5051178;28;20199;-74
2023/05/14 00:41:32;;;;;;;1.48;1.38;;;11.90;99.90;;;;;;5051135;28;20744;-73
2023/05/14 00:43:59;;;;;;;1.20;1.20;;;11.90;99.90;;;;;;5051138;28;20261;-73
2023/05/14 00:46:26;;;;;;;1.10;1.10;;;11.80;99.90;;;;;;5050679;28;20207;-74
2023/05/14 00:48:53;;;;;;;1.20;1.20;;;11.80;99.90;;;;;;5061045;28;20202;-73
2023/05/14 00:51:21;;;;;;;1.20;1.20;;;11.80;99.90;;;;;;5052392;28;20210;-73
2023/05/14 00:53:48;;;;;;;1.67;1.10;;;11.80;99.90;;;;;;5048802;28;20249;-73
2023/05/14 00:56:16;;;;;;;1.50;1.40;;;11.80;99.90;;;;;;5050894;28;20233;-73
2023/05/14 00:58:44;;;;;;;1.42;1.33;;;11.80;99.90;;;;;;5053516;28;20206;-73
2023/05/14 01:01:13;;;;;;;1.67;1.58;;;11.70;99.90;;;;;;5055264;28;20263;-73
2023/05/14 01:03:41;;;;;;;1.60;1.50;;;11.70;99.90;;;;;;5049868;28;20636;-73
2023/05/14 01:06:15;;;;;;;1.70;1.60;;;11.70;99.90;;;;;;5050650;28;20303;-73
2023/05/14 01:08:53;;;;;;;1.88;1.60;;;11.60;99.90;;;;;;5052318;28;20246;-74
2023/05/14 01:11:26;;;;;;;1.73;1.63;;;11.50;99.90;;;;;;5050716;28;20248;-73
2023/05/14 01:14:03;;;;;;;1.90;1.80;;;11.40;99.90;;;;;;5049471;28;20255;-74
2023/05/14 01:16:33;;;;;;;1.38;1.38;;;11.40;99.90;;;;;;5052718;28;20226;-73
2023/05/14 01:19:01;;;;;;;1.85;1.75;;;11.40;99.90;;;;;;5051922;28;20794;-73
2023/05/14 01:21:37;;;;;;;1.70;1.60;;;11.40;99.90;;;;;;5058631;28;20203;-74
2023/05/14 01:24:05;;;;;;;1.83;1.73;;;11.40;99.90;;;;;;5055227;28;20281;-73
2023/05/14 01:26:32;;;;;;;1.80;1.63;;;11.40;99.90;;;;;;5054372;28;20280;-73
2023/05/14 01:29:08;;;;;;;1.88;1.77;;;11.30;99.90;;;;;;5053427;28;20203;-73
2023/05/14 01:31:38;;;;;;;1.73;1.63;;;11.30;99.90;;;;;;5054446;28;20243;-73
2023/05/14 01:34:06;;;;;;;1.88;1.77;;;11.30;99.90;;;;;;5057043;28;20215;-74
2023/05/14 01:36:35;;;;;;;1.52;1.52;;;11.30;99.90;;;;;;5052459;28;20198;-76
2023/05/14 01:39:03;;;;;;;1.65;1.55;;;11.30;99.90;;;;;;5054429;28;20203;-75
2023/05/14 01:41:31;;;;;;;1.50;1.40;;;11.30;99.90;;;;;;5054396;28;20199;-74
2023/05/14 01:43:58;;;;;;;1.67;1.58;;;11.30;99.90;;;;;;5054318;28;20527;-73
2023/05/14 01:46:25;;;;;;;1.70;1.60;;;11.30;99.90;;;;;;5057030;28;20230;-73
2023/05/14 01:48:52;;;;;;;1.33;1.33;;;11.40;99.90;;;;;;5052214;28;20260;-73
2023/05/14 01:51:19;;;;;;;1.45;1.35;;;11.40;99.90;;;;;;5049720;28;20284;-75
2023/05/14 01:53:47;;;;;;;1.38;1.27;;;11.40;99.90;;;;;;5048813;28;20214;-74
2023/05/14 01:56:14;;;;;;;1.45;1.35;;;11.50;99.90;;;;;;5057686;28;20733;-74
2023/05/14 01:58:41;;;;;;;1.65;1.58;;;11.50;99.90;;;;;;5059486;28;20557;-73
2023/05/14 02:01:08;;;;;;;1.50;1.50;;;11.50;99.90;;;;;;5055589;28;20235;-74
2023/05/14 02:03:35;;;;;;;1.30;1.30;;;11.50;99.90;;;;;;5047982;28;20215;-74
2023/05/14 02:06:02;;;;;;;1.25;1.25;;;11.50;99.90;;;;;;5049059;28;20257;-73
2023/05/14 02:08:29;;;;;;;1.52;1.42;;;11.50;99.90;;;;;;5055015;28;20199;-74
2023/05/14 02:10:57;;;;;;;1.40;1.30;;;11.50;99.90;;;;;;5057439;28;20207;-73
2023/05/14 02:13:25;;;;;;;2.85;2.10;;;11.50;99.90;;;;;;5063185;28;20284;-73
2023/05/14 02:15:52;;;;;;;1.85;1.75;;;11.50;99.90;;;;;;5056651;28;20205;-73
2023/05/14 02:18:19;;;;;;;1.67;1.58;;;11.50;99.90;;;;;;5063263;28;20205;-73
2023/05/14 02:20:46;;;;;;;1.75;1.65;;;11.40;99.90;;;;;;5050574;28;20302;-74
2023/05/14 02:23:13;;;;;;;1.80;1.70;;;11.40;99.90;;;;;;5057084;28;20253;-75
2023/05/14 02:25:40;;;;;;;2.00;1.90;;;11.40;99.90;;;;;;5056578;28;20721;-73
2023/05/14 02:28:09;;;;;;;1.83;1.73;;;11.40;99.90;;;;;;5059996;28;20206;-73
2023/05/14 02:30:36;;;;;;;1.50;1.50;;;11.40;99.90;;;;;;5049721;28;20199;-74
2023/05/14 02:33:03;;;;;;;1.73;1.63;;;11.40;99.90;;;;;;5059223;28;20231;-73
2023/05/14 02:35:30;;;;;;;1.80;1.70;;;11.40;99.90;;;;;;5060557;28;20194;-74
2023/05/14 02:37:58;;;;;;;2.00;1.52;;;11.50;99.90;;;;;;5054593;28;20194;-73
2023/05/14 02:40:25;;;;;;;1.40;1.40;;;11.50;99.90;;;;;;5056809;28;20215;-73
2023/05/14 02:42:52;;;;;;;1.30;1.30;;;11.50;99.90;;;;;;5055238;28;20206;-73
2023/05/14 02:45:20;;;;;;;1.42;1.42;;;11.50;99.90;;;;;;5059788;28;20210;-74
2023/05/14 02:47:47;;;;;;;1.20;1.20;;;11.50;99.90;;;;;;5054326;28;20239;-73
2023/05/14 02:50:14;;;;;;;1.33;1.23;;;11.50;99.90;;;;;;5056732;28;20207;-73
2023/05/14 02:52:41;;;;;;;1.27;1.27;;;11.50;99.90;;;;;;5050338;28;20200;-74
2023/05/14 02:55:10;;;;;;;1.65;1.60;;;11.50;99.90;;;;;;5056153;28;20210;-76
2023/05/14 02:57:37;;;;;;;1.45;1.45;;;11.50;99.90;;;;;;5059865;28;20199;-73
2023/05/14 03:00:06;;;;;;;1.50;1.40;;;11.50;99.90;;;;;;5058387;28;20629;-73
2023/05/14 03:02:34;;;;;;;1.48;1.48;;;11.50;99.90;;;;;;5053786;28;20408;-76
2023/05/14 03:05:01;;;;;;;1.50;1.50;;;11.40;99.90;;;;;;5056441;28;20309;-75
2023/05/14 03:07:29;;;;;;;1.58;1.58;;;11.40;99.90;;;;;;5056990;28;20206;-73
2023/05/14 03:09:56;;;;;;;1.77;1.67;;;11.40;99.90;;;;;;5054106;28;20206;-73
2023/05/14 03:12:23;;;;;;;1.60;1.50;;;11.40;99.90;;;;;;5053669;28;20203;-73
2023/05/14 03:14:50;;;;;;;1.58;1.58;;;11.50;99.90;;;;;;5055150;28;20218;-73
2023/05/14 03:17:17;;;;;;;1.80;1.70;;;11.50;99.90;;;;;;5054585;28;20219;-73
2023/05/14 03:19:45;;;;;;;1.45;1.45;;;11.50;99.90;;;;;;5053410;28;20773;-73
2023/05/14 03:22:12;;;;;;;1.70;1.60;;;11.40;99.90;;;;;;5054608;28;20203;-72
2023/05/14 03:24:40;;;;;;;1.50;1.40;;;11.30;99.90;;;;;;5053339;28;20219;-74
2023/05/14 03:27:07;;;;;;;1.65;1.55;;;11.30;99.90;;;;;;5050804;28;20621;-73
2023/05/14 03:29:34;;;;;;;1.83;1.73;;;11.30;99.90;;;;;;5055201;28;20248;-73
2023/05/14 03:32:01;;;;;;;1.80;1.70;;;11.30;99.90;;;;;;5057151;28;20642;-74
2023/05/14 03:34:28;;;;;;;1.60;1.50;;;11.30;99.90;;;;;;5052617;28;20230;-73
2023/05/14 03:36:56;;;;;;;1.65;1.58;;;11.30;99.90;;;;;;5053892;28;20203;-73
2023/05/14 03:39:23;;;;;;;1.98;1.77;;;11.40;99.90;;;;;;5049506;28;20198;-74
2023/05/14 03:41:50;;;;;;;1.63;1.60;;;11.30;99.90;;;;;;5053774;28;20198;-75
2023/05/14 03:44:17;;;;;;;1.73;1.65;;;11.30;99.90;;;;;;5052879;28;20226;-72
2023/05/14 03:46:44;;;;;;;1.70;1.60;;;11.30;99.90;;;;;;5052746;28;20218;-75
2023/05/14 03:49:11;;;;;;;1.35;1.27;;;11.30;99.90;;;;;;5052761;28;20217;-75
2023/05/14 03:51:38;;;;;;;1.60;1.50;;;11.40;99.90;;;;;;5051057;28;20191;-73
2023/05/14 03:54:07;;;;;;;1.60;1.50;;;11.40;99.90;;;;;;5051713;28;20215;-75
2023/05/14 03:56:34;;;;;;;1.35;1.35;;;11.40;99.90;;;;;;5057917;28;20252;-73
2023/05/14 03:59:01;;;;;;;1.60;1.50;;;11.40;99.90;;;;;;5050907;28;20268;-73
2023/05/14 04:01:28;;;;;;;1.60;1.58;;;11.40;99.90;;;;;;5045886;28;20202;-73
2023/05/14 04:03:55;;;;;;;1.40;1.30;;;11.40;99.90;;;;;;5057652;28;20214;-76
2023/05/14 04:06:22;;;;;;;1.40;1.40;;;11.40;99.90;;;;;;5056177;28;20253;-74
2023/05/14 04:08:49;;;;;;;1.60;1.50;;;11.40;99.90;;;;;;5056633;28;20194;-73
2023/05/14 04:11:17;;;;;;;1.40;1.40;;;11.40;99.90;;;;;;5052444;28;20199;-75
2023/05/14 04:13:44;;;;;;;1.73;1.63;;;11.40;99.90;;;;;;5055889;28;20227;-75
2023/05/14 04:16:11;;;;;;;1.42;1.33;;;11.40;99.90;;;;;;5056759;28;20205;-75
2023/05/14 04:18:38;;;;;;;1.60;1.50;;;11.40;99.90;;;;;;5058546;28;20693;-75
2023/05/14 04:21:05;;;;;;;1.50;1.50;;;11.30;99.90;;;;;;5063300;28;20217;-74
2023/05/14 04:23:32;;;;;;;1.80;1.70;;;11.30;99.90;;;;;;5061411;28;20222;-74
2023/05/14 04:25:59;;;;;;;1.70;1.60;;;11.30;99.90;;;;;;5058388;28;20598;-73
2023/05/14 04:28:28;;;;;;;1.90;1.80;;;11.30;99.90;;;;;;5062893;28;20613;-75
2023/05/14 04:30:55;;;;;;;1.45;1.45;;;11.30;99.90;;;;;;5053500;28;20215;-74
2023/05/14 04:33:22;;;;;;;1.55;1.42;;;11.30;99.90;;;;;;5051934;28;20241;-77
2023/05/14 04:35:49;;;;;;;1.70;1.60;;;11.30;99.90;;;;;;5056017;28;20223;-75
2023/05/14 04:38:16;;;;;;;1.60;1.60;;;11.30;99.90;;;;;;5053597;28;20198;-74
2023/05/14 04:40:43;;;;;;;1.55;1.45;;;11.30;99.90;;;;;;5049875;28;20233;-76
2023/05/14 04:43:10;;;;;;;1.90;1.80;;;11.20;99.90;;;;;;5052877;28;20267;-76
2023/05/14 04:45:39;;;;;;;1.80;1.70;;;11.20;99.90;;;;;;5057713;28;20705;-76
2023/05/14 04:48:07;;;;;;;2.35;2.17;;;11.10;99.90;;;;;;5052739;28;20284;-73
2023/05/14 04:50:34;;;;;;;2.00;1.90;;;11.20;99.90;;;;;;5057539;28;20677;-75
2023/05/14 04:53:02;;;;;;;2.13;2.00;;;11.10;99.90;;;;;;5051774;28;20199;-75
2023/05/14 04:55:29;;;;;;;2.38;2.28;;;11.10;99.90;;;;;;5056508;28;20199;-74
2023/05/14 04:57:56;;;;;;;2.08;1.98;;;11.20;99.90;;;;;;5055464;28;20422;-76
2023/05/14 05:00:23;;;;;;;1.70;1.60;;;11.30;99.90;;;;;;5056793;28;20207;-74
2023/05/14 05:02:51;;;;;;;1.77;1.67;;;11.30;99.90;;;;;;5055751;28;20198;-74
2023/05/14 05:05:18;;;;;;;2.05;1.95;;;11.40;99.90;;;;;;5055456;28;20219;-77
2023/05/14 05:07:45;;;;;;;2.30;2.00;;;11.50;99.90;;;;;;5054971;28;20203;-75
2023/05/14 05:10:12;;;;;;;1.77;1.65;;;11.60;99.90;;;;;;5062015;28;20229;-74
2023/05/14 05:12:39;;;;;;;2.25;1.90;;;11.70;99.90;;;;;;5053948;28;20232;-74
2023/05/14 05:15:08;;;;;;;1.90;1.80;;;12.00;99.90;;;;;;5053315;28;20388;-73
2023/05/14 05:17:35;;;;;;;1.88;1.77;;;12.10;99.90;;;;;;5050403;28;20375;-73
2023/05/14 05:20:06;;;;;;;1.52;1.50;;;12.40;99.90;;;;;;5049726;28;20252;-73
2023/05/14 05:22:33;;;;;;;1.70;1.60;;;12.70;99.90;;;;;;5051923;28;20202;-73
2023/05/14 05:25:00;;;;;;;1.77;1.67;;;12.90;99.90;;;;;;5053760;28;20249;-73
2023/05/14 05:27:27;;;;;;;1.70;1.60;;;13.00;99.90;;;;;;5051153;28;20231;-73
2023/05/14 05:29:54;;;;;;;1.70;1.60;;;13.20;99.90;;;;;;5054448;28;20454;-74
2023/05/14 05:32:21;;;;;;;1.65;1.55;;;13.50;99.90;;;;;;5054101;28;20203;-74
2023/05/14 05:34:48;;;;;;;1.48;1.38;;;13.80;99.90;;;;;;5053981;28;20292;-73
2023/05/14 05:37:16;;;;;;;1.67;1.58;;;14.10;99.90;;;;;;5051474;28;20225;-74
2023/05/14 05:39:44;;;;;;;2.25;1.60;;;14.20;99.90;;;;;;5055585;28;20715;-73
2023/05/14 05:42:11;;;;;;;1.70;1.60;;;14.30;99.90;;;;;;5059952;28;20194;-74
2023/05/14 05:44:38;;;;;;;1.60;1.50;;;14.20;99.90;;;;;;5052694;28;20704;-74
2023/05/14 05:47:06;;;;;;;1.25;1.20;;;14.10;99.90;;;;;;5053826;28;20288;-74
2023/05/14 05:49:33;;;;;;;1.52;1.42;;;14.10;99.90;;;;;;5052915;28;20689;-73
2023/05/14 05:52:00;;;;;;;3.95;1.67;;;14.00;99.90;;;;;;5056660;28;20693;-74
2023/05/14 05:54:28;;;;;;;1.52;1.42;;;14.00;99.90;;;;;;5054977;28;20252;-74
2023/05/14 05:56:55;;;;;;;1.55;1.45;;;14.20;99.90;;;;;;5060539;28;20195;-73
2023/05/14 05:59:22;;;;;;;1.50;1.40;;;14.40;99.90;;;;;;5054194;28;20260;-74
2023/05/14 06:01:49;;;;;;;1.50;1.40;;;14.40;99.90;;;;;;5054367;28;20264;-75
2023/05/14 06:04:16;;;;;;;1.95;1.52;;;14.50;99.90;;;;;;5057237;28;20523;-74
2023/05/14 06:06:43;;;;;;;1.58;1.10;;;14.50;99.90;;;;;;5054720;28;20296;-74
2023/05/14 06:09:10;;;;;;;1.10;1.10;;;14.30;99.90;;;;;;5058962;28;20280;-74
2023/05/14 06:11:38;;;;;;;1.25;1.23;;;14.20;99.90;;;;;;5062621;28;20265;-75
2023/05/14 06:14:05;;;;;;;1.35;1.35;;;14.10;99.90;;;;;;5061335;28;20245;-74
2023/05/14 06:16:32;;;;;;;1.52;1.45;;;13.90;99.90;;;;;;5067407;28;20198;-74
2023/05/14 06:18:59;;;;;;;1.35;1.27;;;13.60;99.90;;;;;;5058952;28;20207;-74
2023/05/14 06:21:26;;;;;;;1.13;1.13;;;13.40;99.90;;;;;;5062407;28;20229;-73
2023/05/14 06:23:53;;;;;;;1.85;1.38;;;13.30;99.90;;;;;;5058466;28;20242;-74
2023/05/14 06:26:20;;;;;;;1.20;1.20;;;13.20;99.90;;;;;;5059491;28;20245;-74
2023/05/14 06:28:49;;;;;;;1.40;1.30;;;13.10;99.90;;;;;;5062626;28;20505;-74
2023/05/14 06:31:15;;;;;;;1.45;1.40;;;13.10;99.90;;;;;;5057586;28;20199;-74
2023/05/14 06:33:42;;;;;;;1.17;1.17;;;13.10;99.90;;;;;;5059424;28;20227;-73
2023/05/14 06:36:10;;;;;;;1.27;1.17;;;13.20;99.90;;;;;;5058948;28;20206;-74
2023/05/14 06:38:37;;;;;;;1.25;1.20;;;13.40;99.90;;;;;;5064524;28;20240;-74
2023/05/14 06:41:04;;;;;;;1.20;1.20;;;13.40;99.90;;;;;;5057819;28;20225;-74
2023/05/14 06:43:31;;;;;;;1.10;1.10;;;13.50;99.90;;;;;;5060027;28;20283;-73
2023/05/14 06:46:00;;;;;;;1.42;1.33;;;13.40;99.90;;;;;;5060456;28;20234;-74
2023/05/14 06:48:28;;;;;;;1.50;1.40;;;13.40;99.90;;;;;;5056541;28;20194;-74
2023/05/14 06:50:55;;;;;;;2.67;1.50;;;13.40;99.90;;;;;;5058373;28;20203;-73
2023/05/14 06:53:22;;;;;;;1.83;1.42;;;13.50;99.90;;;;;;5060042;28;20292;-74
2023/05/14 06:55:49;;;;;;;1.48;1.38;;;13.60;99.90;;;;;;5057673;28;20245;-74
2023/05/14 06:58:16;;;;;;;2.05;1.45;;;13.70;99.90;;;;;;5057885;28;20661;-74
2023/05/14 07:00:43;;;;;;;1.60;1.50;;;14.00;99.90;;;;;;5056966;28;20207;-74
2023/05/14 07:03:11;;;;;;;1.90;1.45;;;14.20;99.90;;;;;;5063077;28;20279;-74
2023/05/14 07:05:40;;;;;;;1.38;1.27;;;14.50;99.90;;;;;;5060117;28;20602;-74
2023/05/14 07:08:07;;;;;;;4.30;1.70;;;14.70;99.90;;;;;;5061545;28;20348;-74
2023/05/14 07:10:34;;;;;;;1.60;1.50;;;14.90;99.90;;;;;;5061169;28;20682;-74
2023/05/14 07:13:02;;;;;;;1.65;1.10;;;14.90;99.90;;;;;;5062182;28;20203;-74
2023/05/14 07:15:29;;;;;;;1.42;1.40;;;14.90;99.90;;;;;;5058553;28;20491;-74
2023/05/14 07:17:56;;;;;;;1.50;1.40;;;14.90;99.90;;;;;;5063654;28;20642;-74
2023/05/14 07:20:24;;;;;;;1.05;1.05;;;14.90;99.90;;;;;;5067170;28;20236;-74
2023/05/14 07:22:52;;;;;;;1.50;1.40;;;14.80;99.90;;;;;;5057385;28;20227;-74
2023/05/14 07:25:19;;;;;;;1.42;1.33;;;14.90;99.90;;;;;;5057812;28;20211;-75
2023/05/14 07:27:46;;;;;;;1.40;1.30;;;15.00;99.90;;;;;;5061432;28;20222;-74
2023/05/14 07:30:13;;;;;;;1.27;1.20;;;15.20;99.90;;;;;;5064210;28;20203;-74
2023/05/14 07:32:40;;;;;;;1.20;1.20;;;15.50;99.90;;;;;;5061340;28;20261;-74
2023/05/14 07:35:08;;;;;;;1.45;1.38;;;15.60;99.90;;;;;;5060061;28;20264;-74
2023/05/14 07:37:36;;;;;;;1.10;1.10;;;15.70;99.90;;;;;;5062776;28;20257;-74
2023/05/14 07:40:04;;;;;;;1.20;1.17;;;15.60;99.90;;;;;;5066351;28;20202;-75
2023/05/14 07:42:31;;;;;;;2.15;1.50;;;15.70;99.90;;;;;;5065088;28;20253;-75
2023/05/14 07:44:58;;;;;;;1.38;1.27;;;15.90;99.90;;;;;;5060010;28;20830;-74
2023/05/14 07:47:25;;;;;;;1.38;1.27;;;15.90;99.90;;;;;;5064501;28;20211;-74
2023/05/14 07:49:55;;;;;;;1.00;0.90;;;16.10;99.90;;;;;;5061440;28;20195;-74
2023/05/14 07:52:22;;;;;;;1.63;1.10;;;16.50;99.90;;;;;;5059549;28;20237;-74
2023/05/14 07:54:51;;;;;;;0.90;0.90;;;16.60;99.90;;;;;;5057200;28;20222;-74
2023/05/14 07:57:18;;;;;;;1.15;1.13;;;16.70;99.90;;;;;;5060475;28;20195;-74
2023/05/14 07:59:45;;;;;;;2.20;1.30;;;16.90;99.90;;;;;;5057977;28;20234;-74
2023/05/14 08:02:14;;;;;;;1.10;1.10;;;16.80;99.90;;;;;;5055432;28;20253;-74
2023/05/14 08:04:41;;;;;;;1.05;1.05;;;16.80;99.90;;;;;;5054734;28;20214;-74
2023/05/14 08:07:08;;;;;;;1.15;1.15;;;16.80;99.90;;;;;;5057766;28;20404;-74
2023/05/14 08:09:36;;;;;;;1.58;1.30;;;16.80;99.90;;;;;;5056418;28;20198;-74
2023/05/14 08:12:05;;;;;;;1.35;1.27;;;16.70;99.90;;;;;;5053118;28;20582;-74
2023/05/14 08:14:32;;;;;;;1.40;1.30;;;16.90;99.90;;;;;;5054684;28;20292;-74
2023/05/14 08:16:58;;;;;;;1.42;1.33;;;17.00;99.90;;;;;;5049229;28;20294;-74
2023/05/14 08:19:26;;;;;;;1.20;1.20;;;16.90;99.90;;;;;;5050060;28;20198;-74
2023/05/14 08:21:53;;;;;;;1.15;1.13;;;16.70;99.90;;;;;;5055767;28;20271;-74
2023/05/14 08:24:20;;;;;;;1.30;1.20;;;16.70;99.90;;;;;;5056709;28;20250;-74
2023/05/14 08:26:47;;;;;;;1.17;1.08;;;16.60;99.90;;;;;;5056339;28;20570;-74
2023/05/14 08:29:15;;;;;;;2.15;1.27;;;16.50;99.90;;;;;;5053595;28;20711;-74
2023/05/14 08:31:42;;;;;;;1.27;1.15;;;16.60;99.90;;;;;;5053117;28;21376;-74
2023/05/14 08:34:09;;;;;;;1.20;1.20;;;16.80;99.90;;;;;;5055457;28;20290;-74
2023/05/14 08:36:36;;;;;;;1.05;1.05;;;17.00;99.90;;;;;;5047654;28;20199;-74
2023/05/14 08:39:03;;;;;;;0.95;0.93;;;17.10;99.90;;;;;;5049012;28;20214;-74
2023/05/14 08:41:31;;;;;;;1.27;1.20;;;17.10;99.90;;;;;;5042755;28;20293;-77
2023/05/14 08:44:08;;;;;;;1.20;1.10;;;17.00;99.90;;;;;;5045630;28;20721;-77
2023/05/14 08:46:37;;;;;;;3.20;1.83;;;16.90;99.90;;;;;;5048786;28;21542;-77
2023/05/14 08:49:15;;;;;;;7.78;5.47;;;16.80;99.90;;;;;;5047509;28;20292;-77
2023/05/14 08:51:43;;;;;;;3.90;3.15;;;16.90;99.90;;;;;;5045853;28;20226;-77
2023/05/14 08:54:14;;;;;;;3.75;2.42;;;16.80;99.90;;;;;;5043111;28;20227;-77
2023/05/14 08:56:41;;;;;;;3.03;2.50;;;16.60;99.90;;;;;;5045890;28;20195;-77
2023/05/14 08:59:08;;;;;;;2.25;2.00;;;16.40;99.90;;;;;;5042666;28;20300;-77
2023/05/14 09:01:38;;;;;;;3.05;2.75;;;16.40;99.90;;;;;;5042396;28;20195;-77
2023/05/14 09:04:07;;;;;;;4.05;2.92;;;16.50;99.90;;;;;;5046747;28;20222;-77
2023/05/14 09:06:35;;;;;;;2.40;2.20;;;16.70;99.90;;;;;;5039671;28;20219;-77
2023/05/14 09:09:02;;;;;;;2.35;1.92;;;16.90;99.90;;;;;;5046741;28;20206;-77
2023/05/14 09:11:29;;;;;;;1.48;1.38;;;16.90;99.90;;;;;;5044401;28;20265;-77
2023/05/14 09:13:56;;;;;;;1.90;1.50;;;16.90;99.90;;;;;;5045343;28;20268;-77
2023/05/14 09:16:25;;;;;;;1.20;1.20;;;16.80;99.90;;;;;;5040713;28;20273;-77
2023/05/14 09:18:55;;;;;;;1.60;1.50;;;16.80;99.90;;;;;;5042767;28;20192;-77
2023/05/14 09:21:22;;;;;;;1.30;1.20;;;16.90;99.90;;;;;;5039761;28;20235;-77
2023/05/14 09:23:54;;;;;;;1.50;1.40;;;17.00;99.90;;;;;;5041804;28;20258;-77
2023/05/14 09:26:24;;;;;;;1.20;1.10;;;17.20;99.90;;;;;;5042845;28;20199;-77
2023/05/14 09:28:54;;;;;;;0.90;0.90;;;17.20;99.90;;;;;;5041919;28;20625;-76
2023/05/14 09:31:22;;;;;;;1.00;1.00;;;17.20;99.90;;;;;;5047677;28;20741;-77
2023/05/14 09:33:50;;;;;;;1.00;1.00;;;17.20;99.90;;;;;;5039737;28;20278;-77
2023/05/14 09:36:19;;;;;;;0.85;0.85;;;17.10;99.90;;;;;;5041758;28;20207;-77
2023/05/14 09:38:46;;;;;;;1.10;0.95;;;17.10;99.90;;;;;;5038967;28;20729;-78
2023/05/14 09:41:13;;;;;;;0.90;0.90;;;17.10;99.90;;;;;;5043360;28;20210;-77
2023/05/14 09:43:40;;;;;;;1.02;1.02;;;17.20;99.90;;;;;;5044274;28;20722;-77
2023/05/14 09:46:07;;;;;;;1.08;1.05;;;17.20;99.90;;;;;;5046825;28;20207;-77
2023/05/14 09:48:34;;;;;;;1.10;1.10;;;17.10;99.90;;;;;;5050406;28;20291;-77
2023/05/14 09:51:01;;;;;;;1.15;1.10;;;17.10;99.90;;;;;;5052346;28;20668;-77
2023/05/14 09:53:30;;;;;;;1.08;1.00;;;17.10;99.90;;;;;;5054173;28;20670;-77
2023/05/14 09:55:57;;;;;;;1.17;1.17;;;16.90;99.90;;;;;;5047867;28;20199;-77
2023/05/14 09:58:25;;;;;;;0.90;0.90;;;17.00;99.90;;;;;;5047366;28;20421;-77
2023/05/14 10:00:53;;;;;;;1.10;1.10;;;17.20;99.90;;;;;;5048401;28;20655;-77
2023/05/14 10:03:22;;;;;;;1.05;1.02;;;17.40;99.90;;;;;;5051917;28;20265;-77
2023/05/14 10:05:50;;;;;;;0.85;0.85;;;17.40;99.90;;;;;;5044484;28;20311;-77
2023/05/14 10:08:23;;;;;;;1.10;1.10;;;17.40;99.90;;;;;;5046348;28;20226;-75
2023/05/14 10:10:54;;;;;;;1.05;1.05;;;17.40;99.90;;;;;;5046549;28;20199;-74
2023/05/14 10:13:24;;;;;;;1.15;0.88;;;17.40;99.90;;;;;;5054612;28;20408;-73
2023/05/14 10:15:59;;;;;;;0.90;0.90;;;17.40;99.90;;;;;;5052713;28;20198;-74
2023/05/14 10:18:32;;;;;;;0.90;0.90;;;17.50;99.90;;;;;;5042695;28;20709;-73
2023/05/14 10:21:04;;;;;;;0.90;0.90;;;17.50;99.90;;;;;;5050137;28;20248;-73
2023/05/14 10:23:32;;;;;;;0.95;0.95;;;17.30;99.90;;;;;;5053447;28;20276;-74
2023/05/14 10:26:01;;;;;;;1.00;1.00;;;17.30;99.90;;;;;;5044525;28;20234;-72
2023/05/14 10:28:28;;;;;;;0.90;0.90;;;17.10;99.90;;;;;;5049961;28;20218;-73
2023/05/14 10:30:55;;;;;;;1.15;1.15;;;17.00;99.90;;;;;;5051203;28;20203;-74
2023/05/14 10:33:22;;;;;;;0.88;0.88;;;16.80;99.90;;;;;;5046611;28;20272;-74
2023/05/14 10:35:56;;;;;;;0.93;0.93;;;16.70;99.90;;;;;;5045884;28;20291;-73
2023/05/14 10:38:25;;;;;;;0.82;0.82;;;16.60;99.90;;;;;;5049969;28;20199;-73
2023/05/14 10:41:01;;;;;;;0.80;0.80;;;16.70;99.90;;;;;;5046542;28;20491;-72
2023/05/14 10:43:29;;;;;;;1.40;1.30;;;16.80;99.90;;;;;;5049207;28;20221;-72
2023/05/14 10:45:57;;;;;;;0.98;0.98;;;17.00;99.90;;;;;;5050788;28;20700;-75
2023/05/14 10:48:24;;;;;;;1.00;1.00;;;17.10;99.90;;;;;;5051031;28;20234;-75
2023/05/14 10:50:51;;;;;;;0.85;0.85;;;17.10;99.90;;;;;;5050533;28;20253;-75
2023/05/14 10:53:19;;;;;;;0.98;0.98;;;17.00;99.90;;;;;;5051612;28;20644;-74
2023/05/14 10:55:46;;;;;;;0.90;0.90;;;17.10;99.90;;;;;;5048131;28;20752;-74
2023/05/14 10:58:15;;;;;;;0.88;0.88;;;17.10;99.90;;;;;;5043664;28;20267;-75
2023/05/14 11:00:42;;;;;;;0.65;0.65;;;17.00;99.90;;;;;;5047670;28;20290;-74
2023/05/14 11:03:11;;;;;;;0.90;0.90;;;17.10;99.90;;;;;;5047203;28;20218;-74
2023/05/14 11:05:40;;;;;;;1.10;0.70;;;17.10;99.90;;;;;;5047563;28;20203;-74
2023/05/14 11:08:08;;;;;;;0.80;0.80;;;17.10;99.90;;;;;;5053868;28;20816;-74
2023/05/14 11:10:35;;;;;;;0.98;0.98;;;17.00;99.90;;;;;;5053282;28;20593;-74
2023/05/14 11:13:02;;;;;;;0.77;0.77;;;17.00;99.90;;;;;;5054642;28;20199;-74
2023/05/14 11:15:31;;;;;;;0.80;0.80;;;17.00;99.90;;;;;;5049148;28;20190;-74
2023/05/14 11:17:58;;;;;;;0.98;0.88;;;16.90;99.90;;;;;;5054874;28;20661;-73
2023/05/14 11:20:25;;;;;;;1.00;0.90;;;17.00;99.90;;;;;;5053037;28;20238;-74
2023/05/14 11:22:52;;;;;;;0.70;0.70;;;16.90;99.90;;;;;;5045887;28;20210;-74
2023/05/14 11:25:20;;;;;;;0.90;0.90;;;16.90;99.90;;;;;;5052877;28;20721;-74
2023/05/14 11:27:49;;;;;;;0.70;0.70;;;16.90;99.90;;;;;;5053473;28;20210;-74
2023/05/14 11:30:18;;;;;;;1.13;0.85;;;16.90;99.90;;;;;;5050283;28;20293;-74
2023/05/14 11:32:48;;;;;;;1.67;0.95;;;16.80;99.90;;;;;;5052779;28;20293;-74
2023/05/14 11:35:16;;;;;;;0.85;0.85;;;16.70;99.90;;;;;;5059152;28;20206;-74
2023/05/14 11:37:43;;;;;;;1.08;0.90;;;16.60;99.90;;;;;;5057711;28;20253;-74
2023/05/14 11:40:15;;;;;;;0.77;0.77;;;16.60;99.90;;;;;;5053047;28;20203;-74
2023/05/14 11:42:42;;;;;;;1.00;1.00;;;16.60;99.90;;;;;;5058127;28;20272;-74
2023/05/14 11:45:11;;;;;;;1.10;1.10;;;16.50;99.90;;;;;;5064974;28;20550;-74
2023/05/14 11:47:39;;;;;;;1.10;1.10;;;16.40;99.90;;;;;;5053717;28;20677;-74
2023/05/14 11:50:08;;;;;;;1.05;1.05;;;16.30;99.90;;;;;;5058843;28;20223;-74
2023/05/14 11:52:38;;;;;;;1.00;1.00;;;16.20;99.90;;;;;;5056270;28;20727;-74
2023/05/14 11:55:06;;;;;;;1.30;1.25;;;16.20;99.90;;;;;;5054858;28;20223;-74
2023/05/14 11:57:33;;;;;;;0.90;0.90;;;16.20;99.90;;;;;;5048504;28;20286;-73
2023/05/14 11:59:59;;;;;;;1.00;1.00;;;16.20;99.90;;;;;;5052331;28;20199;-73
2023/05/14 12:02:28;;;;;;;1.02;1.02;;;16.20;99.90;;;;;;5051500;28;20703;-74
2023/05/14 12:04:55;;;;;;;1.10;1.00;;;16.40;99.90;;;;;;5047658;28;20219;-74
2023/05/14 12:07:24;;;;;;;0.88;0.88;;;16.50;99.90;;;;;;5051865;28;20405;-73
2023/05/14 12:09:51;;;;;;;0.80;0.80;;;16.60;99.90;;;;;;5049439;28;20801;-73
2023/05/14 12:12:19;;;;;;;1.13;1.02;;;16.70;99.90;;;;;;5052822;28;20704;-74
2023/05/14 12:14:47;;;;;;;0.85;0.85;;;16.80;99.90;;;;;;5053642;28;20226;-73
2023/05/14 12:17:16;;;;;;;1.13;0.90;;;16.90;99.90;;;;;;5048943;28;20264;-74
2023/05/14 12:19:45;;;;;;;0.90;0.90;;;17.00;99.90;;;;;;5048999;28;20630;-74
2023/05/14 12:22:15;;;;;;;0.90;0.90;;;16.90;99.90;;;;;;5053822;28;20207;-73
2023/05/14 12:24:53;;;;;;;0.90;0.90;;;17.00;99.90;;;;;;5053060;28;20829;-74
2023/05/14 12:27:22;;;;;;;0.90;0.90;;;17.00;99.90;;;;;;5052928;28;20205;-74
2023/05/14 12:29:52;;;;;;;1.00;1.00;;;17.00;99.90;;;;;;5051889;28;20203;-73
2023/05/14 12:32:19;;;;;;;1.75;1.00;;;16.90;99.90;;;;;;5047249;28;20256;-74
2023/05/14 12:34:46;;;;;;;1.00;1.00;;;16.90;99.90;;;;;;5048787;28;20891;-73
2023/05/14 12:37:13;;;;;;;1.17;1.17;;;16.90;99.90;;;;;;5049683;28;20272;-74
2023/05/14 12:39:40;;;;;;;0.85;0.85;;;17.00;99.90;;;;;;5052630;28;20199;-74
2023/05/14 12:42:08;;;;;;;1.00;1.00;;;17.00;99.90;;;;;;5049366;28;20272;-73
2023/05/14 12:44:35;;;;;;;2.63;0.82;;;16.90;99.90;;;;;;5048673;28;20444;-74
2023/05/14 12:47:02;;;;;;;1.00;1.00;;;16.90;99.90;;;;;;5052862;28;20202;-73
2023/05/14 12:49:29;;;;;;;1.60;1.08;;;16.90;99.90;;;;;;5053668;28;20287;-74
2023/05/14 12:51:56;;;;;;;1.10;1.10;;;16.90;99.90;;;;;;5044467;28;20236;-73